North Pole, AK

8:54 AM AKST on November 19, 2017 (GMT -0900)
slaternorthp | | Change Station
Active Advisory: Special Statement

Elev 450 ft 64.75 °N, 147.36 °W | Updated 13 seconds ago

Overcast
Overcast
6.1 °F
Feels Like 6 °F
N
0.0
Wind Variable Wind from East

Today
High -- | Low -- °F
--% Chance of Precip.
Yesterday
High -- | Low -- °F
Precip. -- in
Pressure 29.46 in
Visibility 10.0 miles
Clouds Mostly Cloudy 15000 ft
Windchill 6 °F
Dew Point 4 °F
Humidity 91%
Rainfall 0.00 in
Snow Depth Not available.
9:39 AM 3:29 PM
New Moon, 1% visible
METAR PAEI 191656Z COR 14003KT 10SM BKN150 M23/M26 A2939 RMK AO2A SLP975 T12271256 $ COR 1744
Pressure 29.46 in
Visibility 10.0 miles
Clouds Mostly Cloudy 15000 ft
Windchill 6 °F
Dew Point 4 °F
Humidity 91%
Rainfall 0.00 in
Snow Depth Not available.
9:39 AM 3:29 PM
New Moon, 1% visible
METAR PAEI 191656Z COR 14003KT 10SM BKN150 M23/M26 A2939 RMK AO2A SLP975 T12271256 $ COR 1744

Get Your Daily Forecast Email!

Thanks for signing up!

Be on the lookout for a verification email in your inbox.

You'll start receiving severe weather alerts in your inbox..

×

10-Day Weather Forecast

Almanac

Astronomy

Nov. 19, 2017 Rise Set
Actual Time
Civil Twilight
Nautical Twilight
Astronomical Twilight
Moon
Length of Visible Light
Length of Day
Tomorrow will be .
, % of the Moon is Illuminated

Today's Extremes

State Highs State Lows

Community

WunderPhotos

Category 6

Welcome to Category 6. This is the collective home for Weather Underground's featured writeups by Dr. Jeff Masters (right), Bob Henson (left), Chris Burt, and other regular contributors.

Nearby

Air Quality

  Air Quality AQ Index Pollutant
Not available.

Snow Depth

Station Depth Elevation

Earthquake Activity

City Distance Mag. Time & Date
Minimum magnitude displayed is 2.5.

Coastal Water Temperatures

Place Temperature

Stations

Nearby Weather Stations

Station Location Temp. Windchill Dew Point Humidity Wind Precip. Elev Updated Type
                   

Watches & Warnings

Special Statement
Issued: 4:22 AM AKST Nov. 19, 2017 – National Weather Service

... Strong winds and blowing snow today over summits, passes and
near Delta Junction...

Strong east winds are blowing down the Tanana river and over
summits of the interior today. Strong south winds are also blowing
through Windy Pass near Denali park. These winds are causing blowing
and drifting snow along with low visibility in these areas. The
winds and blowing snow are expected to taper off this afternoon.


Jb

422 am akst sun Nov 19 2017

... Strong winds and blowing snow today over summits, passes and
near Delta Junction...

Strong east winds are blowing down the Tanana river and over
summits of the interior today. Strong south winds are also blowing
through Windy Pass near Denali park. These winds are causing blowing
and drifting snow along with low visibility in these areas. The
winds and blowing snow are expected to taper off this afternoon.


Jb